Time;durP1;ratioP1;P1;durP2;ratioP2;P2;SDS_P1;SDS_P2;PMS_P1;PMS_P2;Temp;Humidity;BMP_temperature;BMP_pressure;BME280_temperature;BME280_humidity;BME280_pressure;Samples;Min_cycle;Max_cycle;Signal;HPM_P1;HPM_P2
2023/10/26 00:02:24;;;;;;;1.12;0.52;;;;;;;16.10;71.85;98031.91;4468402;32;32968;-79
2023/10/26 00:04:53;;;;;;;2.42;1.02;;;;;;;15.96;72.36;98025.75;4476171;32;34319;-82
2023/10/26 00:07:24;;;;;;;1.85;0.65;;;;;;;16.05;71.85;98013.88;4471212;32;33698;-81
2023/10/26 00:09:53;;;;;;;2.12;0.80;;;;;;;15.78;72.21;98009.44;4471835;32;34878;-80
2023/10/26 00:12:25;;;;;;;5.82;1.00;;;;;;;15.81;72.87;98005.78;4461649;32;34383;-82
2023/10/26 00:14:54;;;;;;;3.33;0.75;;;;;;;15.77;73.16;98005.13;4468476;32;34529;-81
2023/10/26 00:17:24;;;;;;;0.93;0.70;;;;;;;15.73;73.39;98008.88;4471127;32;36633;-82
2023/10/26 00:19:52;;;;;;;0.60;0.60;;;;;;;15.60;74.25;98005.28;4471337;32;34270;-81
2023/10/26 00:22:25;;;;;;;0.62;0.57;;;;;;;15.71;73.97;98005.50;4465205;32;33691;-78
2023/10/26 00:24:54;;;;;;;2.45;0.95;;;;;;;15.79;73.35;98008.47;4469754;32;33783;-81
2023/10/26 00:27:26;;;;;;;2.00;0.95;;;;;;;15.86;72.89;98002.88;4475530;32;34078;-82
2023/10/26 00:29:55;;;;;;;0.65;0.60;;;;;;;15.77;73.21;97997.28;4463973;32;33441;-80
2023/10/26 00:32:27;;;;;;;0.52;0.52;;;;;;;15.69;73.41;97985.59;4466157;32;33188;-80
2023/10/26 00:34:56;;;;;;;1.23;0.70;;;;;;;15.71;73.32;97989.81;4473572;32;34202;-80
2023/10/26 00:37:30;;;;;;;2.28;0.73;;;;;;;15.72;73.67;97985.44;4480954;32;34359;-80
2023/10/26 00:39:59;;;;;;;1.35;0.65;;;;;;;15.75;73.37;97988.72;4467482;32;35626;-82
2023/10/26 00:42:30;;;;;;;1.42;0.60;;;;;;;15.78;73.05;97987.69;4461569;32;33506;-80
2023/10/26 00:44:59;;;;;;;2.33;0.98;;;;;;;15.78;73.00;97979.84;4467042;32;33651;-80
2023/10/26 00:47:32;;;;;;;0.77;0.77;;;;;;;15.66;73.27;97975.31;4479595;32;34482;-79
2023/10/26 00:50:01;;;;;;;0.90;0.68;;;;;;;15.68;73.31;97984.75;4475082;32;33580;-80
2023/10/26 00:52:32;;;;;;;1.52;0.60;;;;;;;15.79;73.08;97982.34;4462323;32;33396;-78
2023/10/26 00:55:01;;;;;;;1.40;1.12;;;;;;;15.70;73.09;97979.44;4461632;32;34516;-78
2023/10/26 00:57:34;;;;;;;0.70;0.70;;;;;;;15.79;72.33;97977.09;4466081;32;34762;-79
2023/10/26 01:00:04;;;;;;;2.85;0.60;;;;;;;15.66;72.90;97976.16;4461510;32;33599;-79
2023/10/26 01:02:38;;;;;;;0.75;0.65;;;;;;;15.61;73.35;97973.00;4467742;32;33644;-80
2023/10/26 01:05:07;;;;;;;0.70;0.70;;;;;;;15.71;72.46;97974.13;4461168;32;34513;-82
2023/10/26 01:07:39;;;;;;;1.62;0.73;;;;;;;15.55;73.48;97975.97;4466468;31;34816;-82
2023/10/26 01:10:08;;;;;;;1.10;0.75;;;;;;;15.68;72.85;97973.44;4461789;32;34157;-80
2023/10/26 01:12:38;;;;;;;1.50;0.98;;;;;;;15.51;73.51;97966.63;4467668;32;32937;-80
2023/10/26 01:15:08;;;;;;;1.27;0.77;;;;;;;15.48;73.52;97977.28;4461608;32;33490;-80
2023/10/26 01:17:41;;;;;;;1.25;0.75;;;;;;;15.40;73.75;97969.91;4462256;32;34759;-80
2023/10/26 01:20:12;;;;;;;1.40;0.70;;;;;;;15.52;73.58;97965.72;4461498;32;33591;-79
2023/10/26 01:22:42;;;;;;;0.60;0.60;;;;;;;15.37;74.60;97951.81;4461014;32;33559;-79
2023/10/26 01:25:11;;;;;;;1.40;0.80;;;;;;;15.34;74.57;97952.84;4466816;32;33718;-80
2023/10/26 01:27:43;;;;;;;0.50;0.50;;;;;;;15.54;74.02;97951.59;4461415;32;33630;-80
2023/10/26 01:30:13;;;;;;;1.23;0.80;;;;;;;15.35;74.94;97956.28;4462204;32;34076;-79
2023/10/26 01:32:44;;;;;;;0.85;0.70;;;;;;;15.34;74.97;97950.22;4462076;32;34313;-79
2023/10/26 01:35:13;;;;;;;1.00;0.90;;;;;;;15.35;75.59;97951.88;4472087;32;33938;-81
2023/10/26 01:37:48;;;;;;;0.60;0.60;;;;;;;15.40;75.27;97949.00;4468122;32;35726;-80
2023/10/26 01:40:18;;;;;;;3.28;0.60;;;;;;;15.34;74.94;97945.00;4460791;32;33911;-80
2023/10/26 01:42:47;;;;;;;0.75;0.62;;;;;;;15.28;75.75;97945.34;4463750;32;33744;-82
2023/10/26 01:45:16;;;;;;;1.02;0.62;;;;;;;15.50;74.65;97949.28;4474417;32;33680;-80
2023/10/26 01:47:51;;;;;;;1.00;0.90;;;;;;;15.30;75.54;97948.72;4470892;32;33476;-82
2023/10/26 01:50:20;;;;;;;1.40;0.88;;;;;;;15.39;75.12;97946.47;4471290;32;34051;-79
2023/10/26 01:52:53;;;;;;;2.50;0.70;;;;;;;15.41;74.62;97949.81;4476683;32;33316;-81
2023/10/26 01:55:22;;;;;;;0.68;0.60;;;;;;;15.31;75.29;97954.78;4466411;32;33632;-83
2023/10/26 01:57:51;;;;;;;1.95;0.80;;;;;;;15.48;74.54;97951.13;4475808;32;34429;-76
2023/10/26 02:00:20;;;;;;;0.93;0.62;;;;;;;15.31;75.37;97949.53;4464321;32;34451;-82
2023/10/26 02:02:52;;;;;;;1.00;0.68;;;;;;;15.43;74.79;97947.97;4469292;32;32855;-77
2023/10/26 02:05:21;;;;;;;1.45;0.88;;;;;;;15.40;75.02;97945.56;4474041;32;33634;-80
2023/10/26 02:07:54;;;;;;;4.57;1.05;;;;;;;15.42;74.67;97944.53;4465318;32;34611;-80
2023/10/26 02:10:23;;;;;;;0.85;0.50;;;;;;;15.50;74.42;97941.44;4465461;32;33798;-80
2023/10/26 02:12:56;;;;;;;2.30;0.77;;;;;;;15.47;74.25;97944.25;4471565;32;33177;-81
2023/10/26 02:15:24;;;;;;;1.52;0.73;;;;;;;15.44;74.43;97931.34;4461976;32;34547;-82
2023/10/26 02:17:57;;;;;;;0.80;0.70;;;;;;;15.33;74.85;97932.00;4466996;32;34496;-79
2023/10/26 02:20:27;;;;;;;0.60;0.60;;;;;;;15.26;75.29;97934.16;4472375;32;34597;-82
2023/10/26 02:23:02;;;;;;;1.02;0.75;;;;;;;15.47;74.34;97925.94;4473256;32;33297;-78
2023/10/26 02:25:31;;;;;;;1.05;0.65;;;;;;;15.26;75.19;97921.09;4467704;32;34156;-79
2023/10/26 02:28:15;;;;;;;0.98;0.98;;;;;;;15.35;74.69;97919.69;4475334;32;34333;-80
2023/10/26 02:30:50;;;;;;;1.67;0.80;;;;;;;15.14;76.01;97911.38;4463751;32;33498;-80
2023/10/26 02:33:20;;;;;;;0.88;0.50;;;;;;;15.34;74.83;97918.88;4478830;32;34036;-81
2023/10/26 02:35:51;;;;;;;5.72;0.70;;;;;;;15.22;75.39;97916.12;4474814;31;33936;-79
2023/10/26 02:38:27;;;;;;;0.60;0.60;;;;;;;15.29;75.09;97918.28;4465714;32;33609;-81
2023/10/26 02:41:06;;;;;;;0.93;0.60;;;;;;;15.28;74.85;97914.00;4466050;32;33770;-83
2023/10/26 02:43:35;;;;;;;1.58;1.23;;;;;;;15.31;74.83;97921.63;4477140;32;33338;-80
2023/10/26 02:46:11;;;;;;;1.27;0.95;;;;;;;15.08;75.94;97917.00;4465411;32;33023;-80
2023/10/26 02:48:39;;;;;;;1.45;0.60;;;;;;;15.22;75.18;97924.84;4468547;32;33777;-77
2023/10/26 02:51:13;;;;;;;0.73;0.70;;;;;;;15.34;74.79;97920.63;4464009;32;33973;-79
2023/10/26 02:53:43;;;;;;;0.70;0.70;;;;;;;15.16;75.71;97919.97;4463212;32;33130;-80
2023/10/26 02:56:12;;;;;;;0.68;0.60;;;;;;;15.12;75.48;97914.06;4462771;32;34608;-79
2023/10/26 02:58:41;;;;;;;0.88;0.57;;;;;;;15.20;75.33;97918.00;4467951;32;33758;-79
2023/10/26 03:01:14;;;;;;;1.05;0.68;;;;;;;15.18;75.17;97910.28;4466558;32;33725;-80
2023/10/26 03:03:43;;;;;;;0.75;0.70;;;;;;;14.98;76.09;97913.22;4462946;32;34356;-82
2023/10/26 03:06:15;;;;;;;0.80;0.70;;;;;;;15.18;75.54;97918.09;4462754;32;33545;-79
2023/10/26 03:08:45;;;;;;;0.62;0.62;;;;;;;15.07;75.48;97931.78;4463045;32;33494;-78
2023/10/26 03:11:18;;;;;;;0.75;0.60;;;;;;;15.26;75.13;97930.69;4468462;32;33451;-80
2023/10/26 03:13:47;;;;;;;1.83;0.75;;;;;;;15.10;75.28;97933.38;4448426;32;32715;-82
2023/10/26 03:16:16;;;;;;;0.77;0.70;;;;;;;15.29;74.24;97935.72;4463966;32;34229;-79
2023/10/26 03:18:45;;;;;;;0.60;0.60;;;;;;;15.23;74.45;97930.91;4466058;32;33447;-79
2023/10/26 03:21:20;;;;;;;7.00;0.85;;;;;;;15.16;74.46;97933.03;4471650;32;34262;-80
2023/10/26 03:23:53;;;;;;;1.05;1.00;;;;;;;15.01;74.58;97936.56;4481072;31;33843;-79
2023/10/26 03:26:29;;;;;;;1.70;0.98;;;;;;;14.95;74.59;97932.53;4473440;31;34164;-79
2023/10/26 03:29:00;;;;;;;3.85;0.80;;;;;;;14.97;73.99;97935.06;4480810;32;34579;-79
2023/10/26 03:31:33;;;;;;;1.55;1.08;;;;;;;14.85;74.42;97934.00;4475802;32;35007;-80
2023/10/26 03:34:05;;;;;;;2.60;0.80;;;;;;;14.94;74.47;97934.31;4482646;32;34437;-82
2023/10/26 03:36:34;;;;;;;2.97;1.10;;;;;;;14.77;74.91;97931.00;4474647;31;33406;-82
2023/10/26 03:39:06;;;;;;;1.17;0.70;;;;;;;14.81;75.19;97940.31;4480102;32;34116;-79
2023/10/26 03:41:36;;;;;;;1.52;0.77;;;;;;;14.81;75.48;97935.97;4472005;32;34680;-79
2023/10/26 03:44:08;;;;;;;0.62;0.62;;;;;;;14.91;75.03;97937.09;4476371;32;33449;-80
2023/10/26 03:46:37;;;;;;;1.42;0.85;;;;;;;14.81;76.01;97937.72;4473798;32;33902;-80
2023/10/26 03:49:09;;;;;;;0.80;0.80;;;;;;;14.76;75.99;97939.75;4468575;32;33867;-79
2023/10/26 03:51:38;;;;;;;0.62;0.62;;;;;;;14.88;75.66;97936.44;4478388;32;34260;-80
2023/10/26 03:54:10;;;;;;;1.45;0.82;;;;;;;14.96;75.14;97936.00;4469753;32;33929;-78
2023/10/26 03:56:39;;;;;;;1.98;1.08;;;;;;;14.77;75.73;97934.47;4473620;32;33389;-79
2023/10/26 03:59:11;;;;;;;1.50;1.00;;;;;;;14.71;75.53;97937.41;4478511;32;33378;-79
2023/10/26 04:01:40;;;;;;;1.67;0.65;;;;;;;14.84;74.36;97927.13;4471591;32;33652;-80
2023/10/26 04:04:12;;;;;;;0.60;0.60;;;;;;;14.47;75.88;97927.44;4474234;32;33798;-81
2023/10/26 04:06:40;;;;;;;;;;;;;;;14.57;75.14;97933.00;4466546;32;33611;-81
2023/10/26 04:09:15;;;;;;;1.52;0.98;;;;;;;14.50;75.84;97931.66;4476869;31;33878;-81
2023/10/26 04:11:45;;;;;;;1.37;0.88;;;;;;;14.52;75.74;97932.38;4468178;32;34120;-79
2023/10/26 04:14:14;;;;;;;0.82;0.80;;;;;;;14.29;76.31;97938.91;4474934;32;33107;-81
2023/10/26 04:16:47;;;;;;;1.00;0.90;;;;;;;14.51;75.12;97931.53;4476622;32;34359;-82
2023/10/26 04:19:17;;;;;;;1.58;1.00;;;;;;;14.60;74.57;97932.00;4467923;32;34301;-81
2023/10/26 04:21:45;;;;;;;2.00;0.75;;;;;;;14.64;74.42;97930.88;4467181;32;33932;-81
2023/10/26 04:24:19;;;;;;;1.50;0.90;;;;;;;14.39;75.47;97929.63;4462099;32;33586;-80
2023/10/26 04:26:48;;;;;;;0.95;0.80;;;;;;;14.17;76.57;97934.38;4462530;32;34486;-78
2023/10/26 04:29:20;;;;;;;1.23;0.98;;;;;;;14.40;75.31;97933.94;4464016;32;33877;-80
2023/10/26 04:31:49;;;;;;;0.82;0.82;;;;;;;14.26;75.66;97937.31;4467393;32;33616;-79
2023/10/26 04:34:24;;;;;;;1.17;1.08;;;;;;;14.25;76.03;97935.63;4462078;32;33019;-81
2023/10/26 04:36:53;;;;;;;1.67;0.93;;;;;;;14.46;74.92;97933.56;4461882;32;34346;-79
2023/10/26 04:39:24;;;;;;;0.80;0.80;;;;;;;14.44;74.70;97932.81;4463887;32;33786;-80
2023/10/26 04:41:53;;;;;;;1.25;1.10;;;;;;;14.54;74.11;97934.94;4461988;32;32892;-80
2023/10/26 04:44:25;;;;;;;1.87;1.77;;;;;;;14.40;74.56;97943.50;4467038;32;33681;-78
2023/10/26 04:46:54;;;;;;;1.60;1.10;;;;;;;14.46;74.24;97936.19;4453368;32;33653;-81
2023/10/26 04:49:25;;;;;;;2.05;1.30;;;;;;;14.42;74.32;97937.28;4461148;32;32281;-79
2023/10/26 04:51:54;;;;;;;0.95;0.75;;;;;;;14.39;74.50;97940.06;4458397;32;104906;-81
2023/10/26 04:54:27;;;;;;;2.50;1.10;;;;;;;14.40;74.64;97936.56;4465426;32;33021;-78
2023/10/26 04:56:56;;;;;;;3.05;1.52;;;;;;;14.44;74.71;97934.59;4460836;32;33593;-81
2023/10/26 04:59:28;;;;;;;1.10;0.88;;;;;;;14.67;74.38;97939.38;4461255;32;33659;-79
2023/10/26 05:01:57;;;;;;;1.52;1.12;;;;;;;14.65;74.54;97941.22;4459779;32;33481;-79
2023/10/26 05:04:32;;;;;;;0.98;0.90;;;;;;;14.78;74.56;97935.28;4459335;32;32290;-79
2023/10/26 05:07:01;;;;;;;1.77;1.02;;;;;;;14.69;75.50;97937.53;4465399;32;34688;-78
2023/10/26 05:09:31;;;;;;;3.62;1.10;;;;;;;14.56;76.84;97936.53;4460963;32;33738;-79
2023/10/26 05:12:00;;;;;;;1.58;0.93;;;;;;;14.70;76.38;97940.97;4460220;32;31875;-82
2023/10/26 05:14:33;;;;;;;2.22;1.00;;;;;;;14.61;77.20;97942.31;4461224;32;33938;-79
2023/10/26 05:17:02;;;;;;;1.62;0.93;;;;;;;14.73;76.85;97935.56;4466318;32;34393;-79
2023/10/26 05:19:32;;;;;;;1.10;1.00;;;;;;;14.81;76.68;97932.50;4449308;32;34685;-80
2023/10/26 05:22:03;;;;;;;2.83;1.10;;;;;;;14.88;76.75;97941.66;4462208;32;33898;-82
2023/10/26 05:24:38;;;;;;;2.85;0.98;;;;;;;15.04;76.15;97941.59;4472893;32;33290;-80
2023/10/26 05:27:07;;;;;;;2.97;0.80;;;;;;;15.01;76.77;97952.22;4472634;32;34305;-78
2023/10/26 05:29:36;;;;;;;1.17;0.90;;;;;;;15.06;76.73;97944.97;4475016;32;34189;-82
2023/10/26 05:32:05;;;;;;;5.00;1.62;;;;;;;15.28;75.33;97950.56;4466241;32;33761;-79
2023/10/26 05:34:40;;;;;;;1.95;0.88;;;;;;;15.33;74.89;97948.53;4469682;32;33864;-79
2023/10/26 05:37:08;;;;;;;1.58;0.90;;;;;;;15.25;75.48;97955.16;4470277;31;33586;-81
2023/10/26 05:39:41;;;;;;;1.50;0.98;;;;;;;15.19;76.42;97961.56;4477138;32;34313;-83
2023/10/26 05:42:10;;;;;;;4.28;1.02;;;;;;;15.66;73.16;97954.41;4473600;32;33851;-79
2023/10/26 05:44:41;;;;;;;1.48;1.00;;;;;;;15.57;73.41;97967.09;4464169;32;33448;-80
2023/10/26 05:47:11;;;;;;;1.48;1.00;;;;;;;15.29;75.24;97964.47;4474061;32;34082;-79
2023/10/26 05:49:42;;;;;;;0.70;0.70;;;;;;;15.14;76.20;97968.84;4470938;32;34632;-82
2023/10/26 05:52:11;;;;;;;2.55;1.02;;;;;;;15.46;74.23;97969.50;4482790;32;33150;-79
2023/10/26 05:54:44;;;;;;;1.48;0.80;;;;;;;15.15;76.48;97952.25;4470213;32;33918;-79
2023/10/26 05:57:14;;;;;;;1.35;0.80;;;;;;;15.36;75.69;97960.56;4470457;32;33716;-81
2023/10/26 05:59:43;;;;;;;3.28;0.90;;;;;;;15.57;74.18;97976.72;4472641;32;34650;-80
2023/10/26 06:02:12;;;;;;;1.05;0.95;;;;;;;15.55;74.04;97975.97;4470561;32;33585;-79
2023/10/26 06:04:42;;;;;;;2.60;1.40;;;;;;;15.56;73.46;97978.50;4471162;32;33128;-78
2023/10/26 06:07:12;;;;;;;2.15;1.48;;;;;;;15.25;75.02;97986.50;4472311;32;33546;-80
2023/10/26 06:09:50;;;;;;;2.37;1.15;;;;;;;15.26;75.40;98001.25;4475380;32;33785;-80
2023/10/26 06:12:18;;;;;;;3.95;1.73;;;;;;;15.30;75.61;98008.81;4471740;32;33550;-79
2023/10/26 06:14:49;;;;;;;5.50;2.65;;;;;;;15.40;75.63;98005.66;4477487;32;32724;-81
2023/10/26 06:17:18;;;;;;;10.02;4.80;;;;;;;15.38;76.00;98013.56;4468161;32;32659;-80
2023/10/26 06:19:49;;;;;;;9.70;4.62;;;;;;;15.46;76.05;98008.72;4472998;32;34533;-79
2023/10/26 06:22:18;;;;;;;5.70;2.92;;;;;;;15.58;75.51;98012.37;4467178;32;34250;-79
2023/10/26 06:24:56;;;;;;;3.17;1.52;;;;;;;15.78;74.24;98016.44;4470213;32;33155;-79
2023/10/26 06:27:34;;;;;;;1.45;1.02;;;;;;;15.88;72.51;98027.16;4475104;32;33629;-79
2023/10/26 06:30:04;;;;;;;1.62;1.10;;;;;;;15.77;72.83;98036.50;4450439;32;34094;-80
2023/10/26 06:32:36;;;;;;;3.12;1.75;;;;;;;15.60;74.32;98028.81;4469508;32;34354;-80
2023/10/26 06:35:05;;;;;;;3.42;1.08;;;;;;;15.72;73.74;98022.84;4467023;31;33279;-81
2023/10/26 06:37:35;;;;;;;1.95;0.88;;;;;;;15.57;75.16;98015.91;4473391;31;33573;-82
2023/10/26 06:40:06;;;;;;;2.10;1.12;;;;;;;15.75;74.41;98014.84;4475050;31;35392;-79
2023/10/26 06:42:38;;;;;;;1.62;1.10;;;;;;;15.94;73.42;98022.38;4469372;31;33775;-79
2023/10/26 06:45:08;;;;;;;1.20;0.80;;;;;;;15.96;72.73;98032.75;4462205;31;33144;-79
2023/10/26 06:47:41;;;;;;;2.10;1.10;;;;;;;15.79;72.72;98024.16;4462110;32;32986;-79
2023/10/26 06:50:10;;;;;;;1.12;1.00;;;;;;;15.89;72.16;98024.44;4466652;31;33647;-80
2023/10/26 06:52:41;;;;;;;1.58;1.25;;;;;;;15.85;71.44;98022.97;4465814;31;33086;-79
2023/10/26 06:55:14;;;;;;;1.98;1.23;;;;;;;15.51;72.92;98031.97;4470053;31;33383;-78
2023/10/26 06:58:01;;;;;;;2.60;1.30;;;;;;;15.39;73.57;98030.06;4473521;31;33641;-81
2023/10/26 07:00:34;;;;;;;3.20;1.87;;;;;;;15.32;74.28;98017.41;4471298;31;33183;-79
2023/10/26 07:03:07;;;;;;;3.62;1.80;;;;;;;15.28;74.55;98026.34;4474668;31;33685;-81
2023/10/26 07:05:36;;;;;;;3.40;1.50;;;;;;;15.31;74.82;98022.69;4473432;31;32767;-80
2023/10/26 07:08:06;;;;;;;2.42;1.50;;;;;;;15.15;75.92;98030.62;4470518;31;33429;-81
2023/10/26 07:10:39;;;;;;;1.75;1.50;;;;;;;15.28;74.80;98034.19;4460634;31;34190;-80
2023/10/26 07:13:11;;;;;;;2.53;1.73;;;;;;;15.08;75.60;98037.97;4446780;32;32852;-80
2023/10/26 07:15:40;;;;;;;2.65;1.73;;;;;;;14.97;76.33;98047.34;4467079;31;32984;-79
2023/10/26 07:18:15;;;;;;;2.90;2.15;;;;;;;14.90;76.54;98045.06;4465279;31;33547;-80
2023/10/26 07:20:44;;;;;;;4.80;1.73;;;;;;;14.80;77.13;98043.91;4468141;31;34411;-78
2023/10/26 07:23:17;;;;;;;4.85;1.92;;;;;;;14.60;78.13;98052.03;4460627;31;34360;-78
2023/10/26 07:25:55;;;;;;;3.95;1.70;;;;;;;14.84;77.45;98053.25;4466543;31;33951;-80
2023/10/26 07:28:24;;;;;;;2.97;1.75;;;;;;;14.87;77.83;98044.41;4466043;31;34732;-80
2023/10/26 07:30:59;;;;;;;3.10;1.67;;;;;;;14.87;78.06;98047.84;4465784;31;33738;-80
2023/10/26 07:33:28;;;;;;;2.65;1.67;;;;;;;15.02;77.09;98037.47;4453271;32;32010;-80
2023/10/26 07:35:58;;;;;;;4.65;2.40;;;;;;;15.05;76.72;98025.09;4462430;31;33038;-80
2023/10/26 07:38:27;;;;;;;4.07;2.20;;;;;;;15.15;76.81;98033.22;4476788;31;33840;-82
2023/10/26 07:41:09;;;;;;;4.50;1.77;;;;;;;15.13;77.68;98035.09;4475281;31;35436;-78
2023/10/26 07:43:41;;;;;;;4.05;2.08;;;;;;;15.10;77.71;98035.25;4466622;31;33430;-79
2023/10/26 07:46:10;;;;;;;4.50;2.40;;;;;;;15.34;76.13;98043.41;4464013;31;33386;-83
2023/10/26 07:48:46;;;;;;;4.68;2.42;;;;;;;15.36;75.74;98045.00;4480318;31;33887;-79
2023/10/26 07:51:14;;;;;;;4.35;2.60;;;;;;;15.17;77.05;98046.19;4470454;31;33722;-81
2023/10/26 07:53:46;;;;;;;3.10;1.80;;;;;;;15.07;77.42;98056.31;4466608;31;33543;-79
2023/10/26 07:56:16;;;;;;;2.87;1.70;;;;;;;14.97;77.92;98044.72;4467625;31;32907;-80
2023/10/26 07:58:50;;;;;;;3.35;1.60;;;;;;;15.09;78.06;98049.25;4471887;31;34109;-82
2023/10/26 08:01:18;;;;;;;4.07;2.05;;;;;;;15.09;77.50;98057.91;4467626;31;33790;-79
2023/10/26 08:03:51;;;;;;;2.85;1.40;;;;;;;14.94;77.82;98059.63;4478421;31;34773;-82
2023/10/26 08:06:20;;;;;;;2.47;1.60;;;;;;;15.24;76.88;98068.41;4475083;31;33047;-80
2023/10/26 08:08:56;;;;;;;4.72;2.03;;;;;;;15.21;76.53;98069.41;4467484;31;34146;-79
2023/10/26 08:11:34;;;;;;;5.70;2.25;;;;;;;15.10;77.01;98063.97;4470469;31;32152;-78
2023/10/26 08:14:03;;;;;;;6.35;2.80;;;;;;;15.32;75.95;98061.81;4475897;31;33651;-80
2023/10/26 08:16:52;;;;;;;3.78;1.62;;;;;;;14.93;78.04;98060.56;4479352;31;33087;-78
2023/10/26 08:19:22;;;;;;;3.37;2.00;;;;;;;15.17;77.46;98067.06;4465302;31;33854;-79
2023/10/26 08:21:53;;;;;;;3.22;1.60;;;;;;;15.22;77.03;98080.72;4455023;32;32245;-78
2023/10/26 08:24:23;;;;;;;3.08;1.62;;;;;;;15.54;76.04;98087.53;4464353;31;34447;-80
2023/10/26 08:27:01;;;;;;;2.67;1.73;;;;;;;15.62;75.18;98092.28;4468614;31;33158;-82
2023/10/26 08:29:30;;;;;;;6.55;2.30;;;;;;;15.60;74.84;98088.91;4474992;31;34221;-79
2023/10/26 08:31:59;;;;;;;6.22;2.12;;;;;;;15.60;74.49;98081.06;4473035;31;34850;-80
2023/10/26 08:34:28;;;;;;;4.35;1.95;;;;;;;15.20;76.34;98088.66;4486637;31;33761;-82
2023/10/26 08:37:00;;;;;;;4.70;2.17;;;;;;;15.50;75.70;98090.41;4491607;31;33175;-78
2023/10/26 08:39:44;;;;;;;3.70;1.70;;;;;;;15.49;75.63;98088.72;4466325;32;32412;-80
2023/10/26 08:42:14;;;;;;;4.37;1.90;;;;;;;15.38;76.62;98080.66;4469669;31;34384;-79
2023/10/26 08:44:44;;;;;;;;;;;;;;;15.82;75.27;98079.81;4468277;32;34386;-79
2023/10/26 08:47:17;;;;;;;3.12;1.60;;;;;;;15.65;74.48;98079.03;4470736;31;33953;-80
2023/10/26 08:49:52;;;;;;;2.97;1.75;;;;;;;15.93;74.14;98083.47;4478629;31;33385;-79
2023/10/26 08:52:41;;;;;;;3.87;2.03;;;;;;;16.21;73.44;98081.78;4473604;31;35057;-80
2023/10/26 08:55:10;;;;;;;4.50;2.37;;;;;;;16.44;72.27;98085.59;4479242;31;34519;-79
2023/10/26 08:57:58;;;;;;;4.00;1.90;;;;;;;16.56;72.08;98078.75;4474675;31;33732;-80
2023/10/26 09:00:36;;;;;;;4.85;1.87;;;;;;;16.77;71.21;98084.41;4478616;31;34165;-80
2023/10/26 09:03:04;;;;;;;4.43;1.80;;;;;;;16.49;71.11;98091.38;4455444;31;33233;-81
2023/10/26 09:06:00;;;;;;;6.93;1.85;;;;;;;16.47;71.18;98089.78;4474719;31;34342;-82
2023/10/26 09:08:30;;;;;;;4.20;1.73;;;;;;;16.77;69.96;98089.63;4480920;31;33784;-80
2023/10/26 09:11:04;;;;;;;4.25;2.35;;;;;;;16.82;70.72;98093.66;4473751;31;33299;-79
2023/10/26 09:13:35;;;;;;;4.05;1.62;;;;;;;17.00;69.10;98098.66;4472412;31;33479;-81
2023/10/26 09:16:12;;;;;;;3.05;1.55;;;;;;;16.70;69.31;98101.44;4461833;31;33508;-78
2023/10/26 09:18:50;;;;;;;6.10;1.92;;;;;;;16.53;70.46;98099.88;4474721;31;33674;-80
2023/10/26 09:21:22;;;;;;;3.22;1.58;;;;;;;16.50;71.05;98103.50;4473891;31;34273;-83
2023/10/26 09:24:00;;;;;;;3.30;1.80;;;;;;;16.60;70.08;98104.63;4474657;32;34704;-80
2023/10/26 09:26:39;;;;;;;3.75;1.90;;;;;;;16.86;70.68;98115.25;4474428;31;34365;-82
2023/10/26 09:29:12;;;;;;;3.75;1.85;;;;;;;17.10;68.59;98106.75;4472420;32;33492;-80
2023/10/26 09:31:53;;;;;;;3.25;1.87;;;;;;;16.92;69.53;98104.38;4473498;32;34265;-79
2023/10/26 09:34:27;;;;;;;3.50;2.25;;;;;;;17.04;69.56;98114.06;4475701;32;33391;-79
2023/10/26 09:37:05;;;;;;;5.20;2.53;;;;;;;17.21;69.63;98114.75;4483985;31;33282;-81
2023/10/26 09:39:38;;;;;;;4.35;1.92;;;;;;;17.37;67.86;98115.44;4493332;31;32965;-79
2023/10/26 09:42:09;;;;;;;3.58;2.40;;;;;;;17.41;66.52;98110.81;4491405;31;33790;-80
2023/10/26 09:44:44;;;;;;;3.22;1.70;;;;;;;17.36;66.79;98111.13;4486473;31;34252;-80
2023/10/26 09:47:13;;;;;;;2.75;1.65;;;;;;;17.30;67.63;98102.81;4477120;32;34135;-82
2023/10/26 09:50:02;;;;;;;4.15;1.75;;;;;;;17.60;65.65;98102.56;4470249;32;33334;-81
2023/10/26 09:52:32;;;;;;;2.72;1.65;;;;;;;17.65;64.52;98100.47;4467937;31;33468;-83
2023/10/26 09:55:04;;;;;;;2.72;1.50;;;;;;;17.52;65.06;98092.59;4483687;31;34756;-80
2023/10/26 09:57:35;;;;;;;4.78;1.67;;;;;;;17.79;63.90;98099.53;4478621;31;33335;-80
2023/10/26 10:00:10;;;;;;;4.15;1.73;;;;;;;17.82;64.49;98100.19;4471677;32;33762;-80
2023/10/26 10:02:41;;;;;;;3.05;1.80;;;;;;;17.80;63.90;98093.34;4473378;32;33374;-81
2023/10/26 10:05:37;;;;;;;4.20;2.28;;;;;;;17.87;64.02;98090.22;4472788;32;33626;-80
2023/10/26 10:08:10;;;;;;;4.95;2.45;;;;;;;17.75;65.04;98095.44;4474328;32;34375;-80
2023/10/26 10:11:19;;;;;;;3.33;1.75;;;;;;;17.91;63.98;98094.31;4467253;32;32120;-79
2023/10/26 10:13:47;;;;;;;3.10;1.70;;;;;;;17.87;63.87;98086.75;4465082;31;32175;-79
2023/10/26 10:16:53;;;;;;;6.10;2.40;;;;;;;17.40;65.81;98078.53;4463057;32;34627;-80
2023/10/26 10:19:29;;;;;;;6.20;2.45;;;;;;;17.75;65.08;98080.53;4470619;31;34103;-79
2023/10/26 10:22:09;;;;;;;5.87;2.20;;;;;;;17.93;64.12;98081.09;4472617;32;33441;-79
2023/10/26 10:24:49;;;;;;;4.35;1.92;;;;;;;17.99;62.59;98075.41;4470110;32;34137;-81
2023/10/26 10:27:21;;;;;;;5.12;2.10;;;;;;;17.58;63.57;98070.38;4472471;32;33723;-80
2023/10/26 10:29:51;;;;;;;5.18;2.55;;;;;;;17.76;63.10;98069.12;4481884;31;34632;-80
2023/10/26 10:32:57;;;;;;;2.28;1.58;;;;;;;17.57;63.40;98060.84;4474487;31;33150;-80
2023/10/26 10:35:43;;;;;;;2.97;1.77;;;;;;;18.06;59.57;98065.34;4477299;31;33598;-81
2023/10/26 10:38:22;;;;;;;4.72;2.22;;;;;;;17.89;60.79;98067.34;4475003;32;34817;-82
2023/10/26 10:41:08;;;;;;;3.83;1.67;;;;;;;18.20;59.48;98073.09;4472420;32;34691;-81
2023/10/26 10:43:43;;;;;;;7.20;1.73;;;;;;;18.14;59.04;98078.75;4471776;32;32816;-80
2023/10/26 10:46:14;;;;;;;3.03;1.50;;;;;;;18.08;58.00;98079.19;4471972;32;32895;-78
2023/10/26 10:48:58;;;;;;;3.60;1.70;;;;;;;18.19;57.06;98066.16;4472750;32;33663;-82
2023/10/26 10:51:32;;;;;;;2.37;1.50;;;;;;;18.15;58.76;98059.47;4476027;31;34064;-80
2023/10/26 10:54:02;;;;;;;1.95;1.20;;;;;;;18.46;56.63;98062.50;4478004;31;34056;-82
2023/10/26 10:56:50;;;;;;;2.17;1.00;;;;;;;18.63;54.59;98056.91;4472432;32;34202;-79
2023/10/26 10:59:22;;;;;;;4.35;1.35;;;;;;;18.41;56.21;98060.25;4471825;32;34665;-81
2023/10/26 11:02:06;;;;;;;2.80;1.12;;;;;;;18.70;53.58;98057.28;4471467;31;33597;-80
2023/10/26 11:04:51;;;;;;;1.83;0.90;;;;;;;18.71;51.93;98062.44;4472417;31;33093;-80
2023/10/26 11:07:32;;;;;;;0.65;0.60;;;;;;;18.91;52.27;98062.81;4474186;31;33366;-80
2023/10/26 11:10:05;;;;;;;0.50;0.50;;;;;;;18.91;48.65;98054.94;4473956;31;34323;-81
2023/10/26 11:12:34;;;;;;;1.55;0.90;;;;;;;18.88;49.84;98056.00;4470947;31;32909;-80
2023/10/26 11:15:04;;;;;;;1.15;1.05;;;;;;;18.88;49.93;98058.63;4470751;31;34385;-80
2023/10/26 11:17:39;;;;;;;2.37;0.55;;;;;;;18.64;50.25;98053.31;4472370;31;33710;-79
2023/10/26 11:20:32;;;;;;;1.42;0.80;;;;;;;18.68;50.33;98039.03;4463383;31;32954;-80
2023/10/26 11:23:05;;;;;;;1.00;0.65;;;;;;;19.00;49.99;98042.91;4463483;31;34003;-81
2023/10/26 11:25:38;;;;;;;0.88;0.57;;;;;;;19.17;47.95;98034.59;4472401;32;33259;-82
2023/10/26 11:28:11;;;;;;;1.25;0.52;;;;;;;19.05;48.39;98043.41;4472086;32;33275;-80
2023/10/26 11:30:59;;;;;;;1.83;0.85;;;;;;;18.89;48.83;98028.75;4455631;32;33358;-80
2023/10/26 11:33:35;;;;;;;1.65;0.93;;;;;;;19.12;48.07;98032.31;4474392;32;33865;-80
2023/10/26 11:36:08;;;;;;;1.37;0.88;;;;;;;18.93;47.29;98032.00;4479516;32;32764;-79
2023/10/26 11:38:47;;;;;;;0.75;0.75;;;;;;;19.11;47.87;98028.03;4472561;32;33450;-81
2023/10/26 11:41:21;;;;;;;1.65;0.80;;;;;;;19.09;47.34;98029.91;4468985;32;33195;-80
2023/10/26 11:43:49;;;;;;;3.47;0.75;;;;;;;19.00;47.89;98032.41;4471283;32;35454;-79
2023/10/26 11:46:28;;;;;;;1.08;0.60;;;;;;;19.15;48.77;98031.25;4471112;32;33714;-81
2023/10/26 11:49:01;;;;;;;0.88;0.60;;;;;;;19.28;47.54;98036.41;4477674;32;33733;-78
2023/10/26 11:51:33;;;;;;;1.83;1.00;;;;;;;19.33;47.81;98029.88;4477968;32;34995;-81
2023/10/26 11:54:13;;;;;;;1.45;0.82;;;;;;;19.45;47.05;98029.88;4470884;32;33959;-80
2023/10/26 11:56:42;;;;;;;0.55;0.50;;;;;;;19.34;45.29;98025.44;4471113;32;33874;-79
2023/10/26 11:59:14;;;;;;;0.95;0.70;;;;;;;19.46;43.18;98029.78;4476103;32;33458;-80
2023/10/26 12:01:44;;;;;;;0.35;0.35;;;;;;;19.15;45.41;98033.87;4478194;32;33574;-81